Time;durP1;ratioP1;P1;durP2;ratioP2;P2;SDS_P1;SDS_P2;PMS_P1;PMS_P2;Temp;Humidity;BMP_temperature;BMP_pressure;BME280_temperature;BME280_humidity;BME280_pressure;Samples;Min_cycle;Max_cycle;Signal;HPM_P1;HPM_P2
2023/09/06 00:02:09;;;;;;;11.80;6.90;;;13.40;99.90;;;;;;5084392;28;20111;-68
2023/09/06 00:04:34;;;;;;;12.77;7.30;;;13.40;99.90;;;;;;5087276;28;20464;-68
2023/09/06 00:07:00;;;;;;;17.45;7.20;;;13.30;99.90;;;;;;5085750;28;20036;-69
2023/09/06 00:09:25;;;;;;;14.40;6.97;;;13.30;99.90;;;;;;5085371;28;20039;-68
2023/09/06 00:11:51;;;;;;;11.30;6.47;;;13.30;99.90;;;;;;5086466;28;20432;-67
2023/09/06 00:14:17;;;;;;;14.35;6.72;;;13.30;99.90;;;;;;5086953;28;20487;-69
2023/09/06 00:16:46;;;;;;;13.75;6.50;;;13.30;99.90;;;;;;5084187;28;20043;-69
2023/09/06 00:19:14;;;;;;;14.32;7.10;;;13.30;99.90;;;;;;5084595;28;20123;-69
2023/09/06 00:21:41;;;;;;;17.75;8.30;;;13.20;99.90;;;;;;5084604;28;20032;-68
2023/09/06 00:24:09;;;;;;;13.20;6.97;;;13.20;99.90;;;;;;5084854;28;20106;-68
2023/09/06 00:26:35;;;;;;;15.73;6.80;;;13.10;99.90;;;;;;5086135;28;20085;-68
2023/09/06 00:29:01;;;;;;;14.20;6.80;;;13.10;99.90;;;;;;5085013;28;20016;-69
2023/09/06 00:31:26;;;;;;;17.52;7.00;;;13.10;99.90;;;;;;5069637;28;20082;-67
2023/09/06 00:33:52;;;;;;;14.85;6.72;;;13.10;99.90;;;;;;5083528;28;20032;-67
2023/09/06 00:36:17;;;;;;;13.25;6.95;;;13.10;99.90;;;;;;5067938;28;20118;-68
2023/09/06 00:38:43;;;;;;;19.55;7.15;;;13.00;99.90;;;;;;5085973;28;20044;-68
2023/09/06 00:41:10;;;;;;;13.90;6.68;;;13.00;99.90;;;;;;5085881;28;20048;-67
2023/09/06 00:43:35;;;;;;;14.45;6.93;;;13.00;99.90;;;;;;5086142;28;20034;-68
2023/09/06 00:46:07;;;;;;;12.23;6.75;;;13.00;99.90;;;;;;5086852;28;20032;-69
2023/09/06 00:48:34;;;;;;;13.20;6.55;;;13.00;99.90;;;;;;5084381;28;20056;-68
2023/09/06 00:51:01;;;;;;;13.15;7.22;;;13.00;99.90;;;;;;5086211;28;20098;-68
2023/09/06 00:53:27;;;;;;;14.45;7.25;;;12.90;99.90;;;;;;5084055;28;20070;-67
2023/09/06 00:55:52;;;;;;;13.85;6.95;;;12.80;99.90;;;;;;5087233;28;20044;-67
2023/09/06 00:58:20;;;;;;;17.02;7.03;;;12.80;99.90;;;;;;5086159;28;20034;-67
2023/09/06 01:00:47;;;;;;;12.02;6.63;;;12.70;99.90;;;;;;5084731;28;20054;-67
2023/09/06 01:03:13;;;;;;;18.10;7.38;;;12.70;99.90;;;;;;5083029;28;20055;-67
2023/09/06 01:05:51;;;;;;;12.75;6.85;;;12.70;99.90;;;;;;5086244;28;20028;-67
2023/09/06 01:08:24;;;;;;;12.57;6.53;;;12.60;99.90;;;;;;5080662;28;20036;-66
2023/09/06 01:10:50;;;;;;;13.70;7.28;;;12.60;99.90;;;;;;5085002;28;20036;-67
2023/09/06 01:13:16;;;;;;;14.93;7.07;;;12.60;99.90;;;;;;5086167;28;20063;-68
2023/09/06 01:15:44;;;;;;;12.90;6.75;;;12.60;99.90;;;;;;5086665;28;20527;-67
2023/09/06 01:18:12;;;;;;;11.88;6.68;;;12.50;99.90;;;;;;5085106;28;20119;-68
2023/09/06 01:20:44;;;;;;;12.85;7.10;;;12.50;99.90;;;;;;5085900;28;20039;-67
2023/09/06 01:23:43;;;;;;;11.82;7.28;;;12.60;99.90;;;;;;5085414;28;20031;-67
2023/09/06 01:26:08;;;;;;;11.27;6.80;;;12.50;99.90;;;;;;5030805;28;20101;-67
2023/09/06 01:28:34;;;;;;;13.77;6.80;;;12.50;99.90;;;;;;5068154;28;20124;-67
2023/09/06 01:31:00;;;;;;;14.75;7.03;;;12.50;99.90;;;;;;5087622;28;20039;-67
2023/09/06 01:33:30;;;;;;;14.57;6.97;;;12.40;99.90;;;;;;5084445;28;20028;-68
2023/09/06 01:35:56;;;;;;;12.23;6.13;;;12.30;99.90;;;;;;5089851;28;20028;-67
2023/09/06 01:38:22;;;;;;;13.43;7.38;;;12.30;99.90;;;;;;5086588;28;20056;-67
2023/09/06 01:40:47;;;;;;;14.15;7.28;;;12.20;99.90;;;;;;5088588;28;20113;-67
2023/09/06 01:43:13;;;;;;;12.70;7.00;;;12.30;99.90;;;;;;5087899;28;20311;-67
2023/09/06 01:45:48;;;;;;;11.68;6.75;;;12.20;99.90;;;;;;5087281;28;20416;-66
2023/09/06 01:48:14;;;;;;;13.07;7.30;;;12.10;99.90;;;;;;5086727;28;20063;-66
2023/09/06 01:50:41;;;;;;;14.85;7.28;;;12.10;99.90;;;;;;5090264;28;20381;-68
2023/09/06 01:53:07;;;;;;;12.60;6.97;;;12.10;99.90;;;;;;5088589;28;20102;-69
2023/09/06 01:55:32;;;;;;;12.90;6.88;;;12.20;99.90;;;;;;5090255;28;20369;-68
2023/09/06 01:57:58;;;;;;;12.25;6.95;;;12.20;99.90;;;;;;5087887;28;20110;-68
2023/09/06 02:00:27;;;;;;;15.73;7.50;;;12.20;99.90;;;;;;5088172;28;20134;-68
2023/09/06 02:02:54;;;;;;;14.75;7.45;;;12.20;99.90;;;;;;5088904;28;20036;-69
2023/09/06 02:05:19;;;;;;;12.80;7.22;;;12.20;99.90;;;;;;5086689;28;20041;-67
2023/09/06 02:07:45;;;;;;;10.27;6.15;;;12.20;99.90;;;;;;5088141;28;20036;-68
2023/09/06 02:10:11;;;;;;;15.13;6.90;;;12.20;99.90;;;;;;5086115;28;20121;-67
2023/09/06 02:12:38;;;;;;;13.20;7.18;;;12.10;99.90;;;;;;5088610;28;20052;-67
2023/09/06 02:15:07;;;;;;;18.30;8.27;;;12.10;99.90;;;;;;5082662;28;20101;-68
2023/09/06 02:17:34;;;;;;;12.05;6.68;;;12.10;99.90;;;;;;5086310;28;20166;-67
2023/09/06 02:20:43;;;;;;;13.57;6.93;;;12.10;99.90;;;;;;5085011;28;20070;-68
2023/09/06 02:22:57;;;;;;;11.80;6.43;;;12.10;99.90;;;;;;5080729;28;20040;-68
2023/09/06 02:25:26;;;;;;;12.75;6.97;;;12.00;99.90;;;;;;5083047;28;20233;-68
2023/09/06 02:27:52;;;;;;;12.43;6.75;;;11.90;99.90;;;;;;5085380;28;20392;-68
2023/09/06 02:30:19;;;;;;;12.13;6.47;;;11.90;99.90;;;;;;5084161;28;20020;-67
2023/09/06 02:32:45;;;;;;;13.20;6.95;;;11.80;99.90;;;;;;5093010;28;20734;-68
2023/09/06 02:35:10;;;;;;;11.73;6.60;;;11.80;99.90;;;;;;5089018;28;20024;-70
2023/09/06 02:37:36;;;;;;;13.88;6.60;;;11.80;99.90;;;;;;5090455;28;20032;-68
2023/09/06 02:40:12;;;;;;;13.73;7.05;;;11.80;99.90;;;;;;5089214;28;20051;-68
2023/09/06 02:42:39;;;;;;;11.75;6.47;;;11.80;99.90;;;;;;5088272;28;20107;-67
2023/09/06 02:45:07;;;;;;;15.43;6.78;;;11.80;99.90;;;;;;5087932;28;20050;-68
2023/09/06 02:47:34;;;;;;;10.05;6.03;;;11.80;99.90;;;;;;5079695;28;20044;-68
2023/09/06 02:50:00;;;;;;;12.02;6.47;;;11.70;99.90;;;;;;5050094;28;20040;-68
2023/09/06 02:52:30;;;;;;;12.57;6.25;;;11.60;99.90;;;;;;5065131;28;20025;-68
2023/09/06 02:54:59;;;;;;;13.95;6.57;;;11.50;99.90;;;;;;5069186;28;20028;-68
2023/09/06 02:57:26;;;;;;;11.32;6.45;;;11.50;99.90;;;;;;5064903;28;20032;-71
2023/09/06 02:59:53;;;;;;;14.65;7.07;;;11.40;99.90;;;;;;5066515;28;20052;-71
2023/09/06 03:02:20;;;;;;;14.38;6.70;;;11.50;99.90;;;;;;5067048;28;20033;-71
2023/09/06 03:04:45;;;;;;;11.60;6.47;;;11.50;99.90;;;;;;5066419;28;20370;-71
2023/09/06 03:07:11;;;;;;;13.57;6.82;;;11.50;99.90;;;;;;5065540;28;20067;-71
2023/09/06 03:09:38;;;;;;;13.85;7.07;;;11.40;99.90;;;;;;5068322;28;20475;-71
2023/09/06 03:12:16;;;;;;;20.23;7.03;;;11.40;99.90;;;;;;5069388;28;20028;-70
2023/09/06 03:14:44;;;;;;;11.90;6.50;;;11.40;99.90;;;;;;5069365;28;20028;-70
2023/09/06 03:17:18;;;;;;;11.40;6.30;;;11.30;99.90;;;;;;5065315;28;20456;-70
2023/09/06 03:19:46;;;;;;;12.98;6.78;;;11.30;99.90;;;;;;5068995;28;20048;-72
2023/09/06 03:22:12;;;;;;;15.07;7.00;;;11.20;99.90;;;;;;5067703;28;20106;-70
2023/09/06 03:24:44;;;;;;;17.52;7.47;;;11.20;99.90;;;;;;5067268;28;20040;-71
2023/09/06 03:27:15;;;;;;;12.65;6.78;;;11.20;99.90;;;;;;5067015;28;20790;-71
2023/09/06 03:29:40;;;;;;;13.55;6.60;;;11.20;99.90;;;;;;5067591;28;20036;-71
2023/09/06 03:32:10;;;;;;;12.82;7.00;;;11.20;99.90;;;;;;5068688;28;20108;-71
2023/09/06 03:34:36;;;;;;;16.33;6.88;;;11.10;99.90;;;;;;5050599;28;20032;-71
2023/09/06 03:37:05;;;;;;;11.68;6.47;;;11.10;99.90;;;;;;5066665;28;20044;-71
2023/09/06 03:39:43;;;;;;;16.08;7.47;;;11.00;99.90;;;;;;5066176;28;20101;-71
2023/09/06 03:42:09;;;;;;;16.13;6.93;;;11.00;99.90;;;;;;5067776;28;20032;-71
2023/09/06 03:44:38;;;;;;;12.07;6.72;;;11.00;99.90;;;;;;5066040;28;20032;-71
2023/09/06 03:47:06;;;;;;;13.45;6.78;;;11.00;99.90;;;;;;5072243;28;20492;-70
2023/09/06 03:49:35;;;;;;;11.15;6.00;;;11.00;99.90;;;;;;5086263;28;20516;-71
2023/09/06 03:52:04;;;;;;;12.30;6.00;;;11.00;99.90;;;;;;5087998;28;20032;-70
2023/09/06 03:54:29;;;;;;;13.68;6.80;;;10.90;99.90;;;;;;5084984;28;20106;-70
2023/09/06 03:56:55;;;;;;;11.95;6.70;;;10.90;99.90;;;;;;5085057;28;20040;-70
2023/09/06 03:59:21;;;;;;;12.10;6.43;;;10.90;99.90;;;;;;5085332;28;20107;-71
2023/09/06 04:01:47;;;;;;;17.25;6.90;;;10.90;99.90;;;;;;5087649;28;20101;-70
2023/09/06 04:04:13;;;;;;;13.80;7.10;;;10.90;99.90;;;;;;5088724;28;20023;-72
2023/09/06 04:06:43;;;;;;;10.75;5.88;;;10.90;99.90;;;;;;5084350;28;20078;-71
2023/09/06 04:09:13;;;;;;;17.15;7.10;;;10.90;99.90;;;;;;5086403;28;20044;-70
2023/09/06 04:11:40;;;;;;;16.95;6.80;;;10.90;99.90;;;;;;5085759;28;20089;-71
2023/09/06 04:14:06;;;;;;;13.40;7.28;;;10.90;99.90;;;;;;5087762;28;20040;-70
2023/09/06 04:16:33;;;;;;;13.27;7.18;;;10.90;99.90;;;;;;5086588;28;20110;-70
2023/09/06 04:18:58;;;;;;;12.40;6.30;;;10.80;99.90;;;;;;5077023;28;20036;-70
2023/09/06 04:21:24;;;;;;;13.35;6.95;;;10.70;99.90;;;;;;5086558;28;20028;-71
2023/09/06 04:23:49;;;;;;;16.67;6.88;;;10.70;99.90;;;;;;5087273;28;20032;-71
2023/09/06 04:26:16;;;;;;;15.45;7.10;;;10.70;99.90;;;;;;5085840;28;20078;-72
2023/09/06 04:28:41;;;;;;;16.67;7.55;;;10.70;99.90;;;;;;5087483;28;20038;-71
2023/09/06 04:31:08;;;;;;;11.75;6.65;;;10.70;99.90;;;;;;5088456;28;20028;-71
2023/09/06 04:33:34;;;;;;;13.35;6.70;;;10.70;99.90;;;;;;5086143;28;20137;-71
2023/09/06 04:36:02;;;;;;;12.65;7.15;;;10.70;99.90;;;;;;5088289;28;20747;-71
2023/09/06 04:38:30;;;;;;;17.63;7.28;;;10.70;99.90;;;;;;5086412;28;20035;-71
2023/09/06 04:40:56;;;;;;;11.38;6.55;;;10.70;99.90;;;;;;5087253;28;20071;-71
2023/09/06 04:43:22;;;;;;;14.85;7.28;;;10.70;99.90;;;;;;5086424;28;20107;-71
2023/09/06 04:45:49;;;;;;;13.13;6.95;;;10.70;99.90;;;;;;5085675;28;20055;-71
2023/09/06 04:48:18;;;;;;;14.25;6.75;;;10.60;99.90;;;;;;5085160;28;20131;-72
2023/09/06 04:50:45;;;;;;;13.48;7.03;;;10.70;99.90;;;;;;5086335;28;20063;-71
2023/09/06 04:53:12;;;;;;;11.57;6.55;;;10.70;99.90;;;;;;5088155;28;20131;-70
2023/09/06 04:55:39;;;;;;;14.55;6.90;;;10.70;99.90;;;;;;5086664;28;20407;-70
2023/09/06 04:58:07;;;;;;;14.65;7.03;;;10.70;99.90;;;;;;5088066;28;20059;-71
2023/09/06 05:00:37;;;;;;;13.52;6.75;;;10.70;99.90;;;;;;5081705;28;20031;-72
2023/09/06 05:03:12;;;;;;;17.15;7.07;;;10.70;99.90;;;;;;5080333;28;20028;-71
2023/09/06 05:05:40;;;;;;;14.98;6.97;;;10.70;99.90;;;;;;5087432;28;20405;-70
2023/09/06 05:08:07;;;;;;;15.43;7.65;;;10.70;99.90;;;;;;5087546;28;20032;-71
2023/09/06 05:10:35;;;;;;;13.50;7.50;;;10.70;99.90;;;;;;5091124;28;20793;-70
2023/09/06 05:13:01;;;;;;;13.55;6.93;;;10.80;99.90;;;;;;5091050;28;20147;-70
2023/09/06 05:15:28;;;;;;;12.60;7.25;;;10.90;99.90;;;;;;5087963;28;20035;-70
2023/09/06 05:17:53;;;;;;;13.75;6.57;;;10.80;99.90;;;;;;5091669;28;20063;-70
2023/09/06 05:20:33;;;;;;;16.73;7.65;;;10.80;99.90;;;;;;5085145;28;20074;-71
2023/09/06 05:23:00;;;;;;;13.60;7.17;;;10.90;99.90;;;;;;5089656;28;20066;-71
2023/09/06 05:25:25;;;;;;;13.93;6.80;;;10.90;99.90;;;;;;5085181;28;20020;-71
2023/09/06 05:27:55;;;;;;;15.40;7.65;;;11.00;99.90;;;;;;5089960;28;20132;-70
2023/09/06 05:30:21;;;;;;;14.15;6.78;;;11.10;99.90;;;;;;5084288;28;20070;-72
2023/09/06 05:32:47;;;;;;;14.48;6.70;;;11.10;99.90;;;;;;5081042;28;20028;-71
2023/09/06 05:35:13;;;;;;;16.77;6.80;;;11.20;99.90;;;;;;5085764;28;20079;-70
2023/09/06 05:37:39;;;;;;;13.38;6.95;;;11.30;99.90;;;;;;5078735;28;20034;-70
2023/09/06 05:40:06;;;;;;;17.05;6.32;;;11.40;99.90;;;;;;5090422;28;20024;-71
2023/09/06 05:42:32;;;;;;;11.35;6.68;;;11.50;99.90;;;;;;5090399;28;20032;-70
2023/09/06 05:44:58;;;;;;;16.00;6.97;;;11.70;99.90;;;;;;5086015;28;20031;-71
2023/09/06 05:47:23;;;;;;;12.30;6.45;;;11.80;99.90;;;;;;5082905;28;20048;-70
2023/09/06 05:49:52;;;;;;;13.50;6.78;;;12.00;99.90;;;;;;5055718;28;20099;-71
2023/09/06 05:52:18;;;;;;;13.63;7.05;;;12.20;99.90;;;;;;5085149;28;20093;-70
2023/09/06 05:54:46;;;;;;;12.10;6.80;;;12.30;99.90;;;;;;5084895;28;20476;-70
2023/09/06 05:57:12;;;;;;;12.90;7.30;;;12.40;99.90;;;;;;5082138;28;20028;-72
2023/09/06 05:59:38;;;;;;;12.75;6.93;;;12.50;99.90;;;;;;5086317;28;20030;-70
2023/09/06 06:02:03;;;;;;;12.40;6.93;;;12.70;99.90;;;;;;5090772;28;20093;-71
2023/09/06 06:04:29;;;;;;;15.13;8.02;;;12.90;99.90;;;;;;5087913;28;20024;-71
2023/09/06 06:06:54;;;;;;;15.75;7.30;;;13.00;99.90;;;;;;5090250;28;20152;-70
2023/09/06 06:09:21;;;;;;;14.68;7.80;;;13.10;99.90;;;;;;5088706;28;20035;-71
2023/09/06 06:11:47;;;;;;;17.73;8.00;;;13.20;99.90;;;;;;5090875;28;20035;-71
2023/09/06 06:14:13;;;;;;;14.43;7.68;;;13.30;99.90;;;;;;5089508;28;20028;-70
2023/09/06 06:16:39;;;;;;;14.32;7.65;;;13.20;99.90;;;;;;5089056;28;20035;-71
2023/09/06 06:19:04;;;;;;;12.98;7.60;;;13.30;99.90;;;;;;5090189;28;20455;-71
2023/09/06 06:21:31;;;;;;;15.05;7.78;;;13.30;99.90;;;;;;5089389;28;20404;-71
2023/09/06 06:23:57;;;;;;;12.85;7.05;;;13.30;99.90;;;;;;5089850;28;20107;-72
2023/09/06 06:26:23;;;;;;;13.05;7.65;;;13.50;99.90;;;;;;5088713;28;20024;-71
2023/09/06 06:28:49;;;;;;;17.10;7.65;;;13.70;99.90;;;;;;5090622;28;20024;-71
2023/09/06 06:31:15;;;;;;;16.33;7.45;;;14.00;99.90;;;;;;5089597;28;20028;-71
2023/09/06 06:33:42;;;;;;;13.15;8.00;;;14.30;99.90;;;;;;5089674;28;20031;-70
2023/09/06 06:36:08;;;;;;;16.58;7.85;;;14.60;99.90;;;;;;5090645;28;20057;-72
2023/09/06 06:38:33;;;;;;;14.68;8.43;;;14.80;99.90;;;;;;5088583;28;20067;-72
2023/09/06 06:40:59;;;;;;;14.93;8.02;;;15.00;99.90;;;;;;5089298;28;20043;-72
2023/09/06 06:43:25;;;;;;;12.70;7.50;;;15.30;99.90;;;;;;5087894;28;20111;-72
2023/09/06 06:45:53;;;;;;;14.77;7.43;;;15.50;99.90;;;;;;5074155;28;20021;-71
2023/09/06 06:48:20;;;;;;;13.15;7.65;;;15.70;99.90;;;;;;5083274;28;20059;-72
2023/09/06 06:50:46;;;;;;;15.02;7.80;;;15.80;99.90;;;;;;5070800;28;20032;-72
2023/09/06 06:53:11;;;;;;;14.50;7.82;;;15.90;99.90;;;;;;5082287;28;20107;-72
2023/09/06 06:55:37;;;;;;;13.38;7.93;;;16.00;99.90;;;;;;5085931;28;20031;-71
2023/09/06 06:58:05;;;;;;;15.32;7.63;;;16.20;99.90;;;;;;5086528;28;20044;-71
2023/09/06 07:00:31;;;;;;;13.32;7.38;;;16.30;99.90;;;;;;5083507;28;20039;-71
2023/09/06 07:03:00;;;;;;;14.20;7.00;;;16.40;99.90;;;;;;5068221;28;20063;-71
2023/09/06 07:05:27;;;;;;;12.15;7.57;;;16.60;99.90;;;;;;5073941;28;20392;-72
2023/09/06 07:07:53;;;;;;;13.57;7.22;;;16.70;99.90;;;;;;5087606;28;20501;-70
2023/09/06 07:10:21;;;;;;;15.50;7.47;;;16.80;99.90;;;;;;5089747;28;20035;-71
2023/09/06 07:12:48;;;;;;;12.65;7.05;;;16.90;99.90;;;;;;5088973;28;20085;-71
2023/09/06 07:15:14;;;;;;;13.23;7.18;;;17.10;99.90;;;;;;5089665;28;20067;-72
2023/09/06 07:17:40;;;;;;;14.73;8.13;;;17.20;99.90;;;;;;5085998;28;20060;-71
2023/09/06 07:20:07;;;;;;;13.88;6.75;;;17.30;99.90;;;;;;5086244;28;20116;-72
2023/09/06 07:22:33;;;;;;;12.15;7.05;;;17.40;99.90;;;;;;5087329;28;20043;-70
2023/09/06 07:24:58;;;;;;;11.90;7.00;;;17.60;99.90;;;;;;5075069;28;20024;-71
2023/09/06 07:27:25;;;;;;;11.35;6.82;;;17.70;99.90;;;;;;5089274;28;20040;-72
2023/09/06 07:29:51;;;;;;;11.25;6.68;;;17.80;99.90;;;;;;5082929;28;20526;-72
2023/09/06 07:32:16;;;;;;;11.30;6.65;;;18.00;99.90;;;;;;5085879;28;20024;-74
2023/09/06 07:34:42;;;;;;;13.45;6.75;;;18.10;99.90;;;;;;5083326;28;20806;-72
2023/09/06 07:37:08;;;;;;;14.07;6.88;;;18.20;99.90;;;;;;5083179;28;20047;-72
2023/09/06 07:39:33;;;;;;;11.55;6.90;;;18.40;99.90;;;;;;5085293;28;20165;-71
2023/09/06 07:41:59;;;;;;;10.55;6.57;;;18.50;99.90;;;;;;5087991;28;20036;-72
2023/09/06 07:44:25;;;;;;;11.73;6.72;;;18.60;99.90;;;;;;5086408;28;20508;-73
2023/09/06 07:46:50;;;;;;;11.57;6.75;;;18.70;99.90;;;;;;5088132;28;20032;-71
2023/09/06 07:49:16;;;;;;;15.40;7.32;;;18.80;99.90;;;;;;5089143;28;20461;-71
2023/09/06 07:51:42;;;;;;;10.00;6.50;;;18.90;99.90;;;;;;5087615;28;20475;-71
2023/09/06 07:54:09;;;;;;;14.77;7.35;;;18.90;99.90;;;;;;5089038;28;20028;-71
2023/09/06 07:56:35;;;;;;;11.65;6.45;;;18.90;99.90;;;;;;5087286;28;20036;-71
2023/09/06 07:59:00;;;;;;;11.82;6.65;;;19.00;99.90;;;;;;5088898;28;20051;-71
2023/09/06 08:01:26;;;;;;;9.23;6.28;;;19.10;99.90;;;;;;5088755;28;20027;-72
2023/09/06 08:03:51;;;;;;;10.15;6.13;;;19.20;99.90;;;;;;5087190;28;20032;-72
2023/09/06 08:06:17;;;;;;;14.40;6.80;;;19.30;99.90;;;;;;5088411;28;20540;-72
2023/09/06 08:08:43;;;;;;;14.32;6.45;;;19.40;99.90;;;;;;5088055;28;20043;-71
2023/09/06 08:11:10;;;;;;;13.85;6.57;;;19.50;99.90;;;;;;5088739;28;20024;-71
2023/09/06 08:13:37;;;;;;;10.73;6.70;;;19.60;99.90;;;;;;5086435;28;20060;-72
2023/09/06 08:16:03;;;;;;;11.38;6.45;;;19.60;99.90;;;;;;5080766;28;20546;-72
2023/09/06 08:18:29;;;;;;;10.20;6.50;;;19.70;99.90;;;;;;5088027;28;20098;-72
2023/09/06 08:20:55;;;;;;;17.50;6.88;;;19.80;99.90;;;;;;5087956;28;20039;-71
2023/09/06 08:23:20;;;;;;;8.98;5.93;;;19.90;99.90;;;;;;5088661;28;20032;-71
2023/09/06 08:25:46;;;;;;;12.10;6.45;;;20.00;99.90;;;;;;5087399;28;20031;-72
2023/09/06 08:28:15;;;;;;;9.15;5.93;;;20.20;99.90;;;;;;5087255;28;20028;-71
2023/09/06 08:30:42;;;;;;;11.10;6.75;;;20.30;99.90;;;;;;5087696;28;20468;-72
2023/09/06 08:33:08;;;;;;;10.10;6.78;;;20.40;99.90;;;;;;5088023;28;20067;-72
2023/09/06 08:35:33;;;;;;;14.10;6.45;;;20.40;99.90;;;;;;5086684;28;20392;-72
2023/09/06 08:37:59;;;;;;;15.18;6.70;;;20.60;99.90;;;;;;5088419;28;20034;-71
2023/09/06 08:40:25;;;;;;;11.32;6.72;;;20.60;99.90;;;;;;5087398;28;20101;-71
2023/09/06 08:42:52;;;;;;;9.98;6.18;;;20.70;99.90;;;;;;5088061;28;20068;-71
2023/09/06 08:45:21;;;;;;;12.38;6.70;;;20.80;99.90;;;;;;5092543;28;20028;-71
2023/09/06 08:47:48;;;;;;;11.13;6.60;;;21.00;99.90;;;;;;5091419;28;20218;-70
2023/09/06 08:50:14;;;;;;;10.55;6.65;;;21.10;99.90;;;;;;5091943;28;20028;-70
2023/09/06 08:52:42;;;;;;;10.27;6.18;;;21.10;99.90;;;;;;5090478;28;20464;-72
2023/09/06 08:55:11;;;;;;;15.68;6.45;;;21.20;99.90;;;;;;5091606;28;20040;-71
2023/09/06 08:57:39;;;;;;;10.43;6.60;;;21.20;99.90;;;;;;5090494;28;20399;-70
2023/09/06 09:00:09;;;;;;;11.48;6.85;;;21.40;99.90;;;;;;5091426;28;20047;-70
2023/09/06 09:02:40;;;;;;;10.93;6.72;;;21.40;99.90;;;;;;5091149;28;20032;-70
2023/09/06 09:05:06;;;;;;;10.52;6.13;;;21.50;99.90;;;;;;5092201;28;20123;-71
2023/09/06 09:07:32;;;;;;;10.07;6.78;;;21.60;99.90;;;;;;5090103;28;20036;-72
2023/09/06 09:09:59;;;;;;;12.18;6.53;;;21.70;99.90;;;;;;5091094;28;20032;-71
2023/09/06 09:12:29;;;;;;;11.07;6.45;;;21.80;99.90;;;;;;5091847;28;20039;-71
2023/09/06 09:14:56;;;;;;;12.60;6.90;;;21.90;99.90;;;;;;5090540;28;20107;-71
2023/09/06 09:17:23;;;;;;;16.05;6.53;;;22.10;99.90;;;;;;5091768;28;20040;-70
2023/09/06 09:19:54;;;;;;;17.05;6.50;;;22.20;99.90;;;;;;5090303;28;20040;-71
2023/09/06 09:22:28;;;;;;;13.02;6.38;;;22.30;99.90;;;;;;5092006;28;20040;-70
2023/09/06 09:25:14;;;;;;;10.15;6.38;;;22.40;99.90;;;;;;5091078;28;20047;-70
2023/09/06 09:27:56;;;;;;;11.93;6.78;;;22.40;99.90;;;;;;5089840;28;20062;-70
2023/09/06 09:30:22;;;;;;;7.82;5.82;;;22.40;99.90;;;;;;5090448;28;20115;-70
2023/09/06 09:32:48;;;;;;;11.30;6.63;;;22.50;99.90;;;;;;5089844;28;20040;-71
2023/09/06 09:35:14;;;;;;;9.75;6.13;;;22.60;99.90;;;;;;5091520;28;20024;-71
2023/09/06 09:37:41;;;;;;;11.30;6.38;;;22.80;99.90;;;;;;5090924;28;20175;-71
2023/09/06 09:40:20;;;;;;;11.70;6.57;;;22.90;99.90;;;;;;5091574;28;20486;-71
2023/09/06 09:42:56;;;;;;;9.88;6.25;;;23.00;99.90;;;;;;5078701;28;20035;-70
2023/09/06 09:45:29;;;;;;;13.48;6.45;;;23.20;99.90;;;;;;5090525;28;20486;-70
2023/09/06 09:47:57;;;;;;;11.02;6.03;;;23.20;99.90;;;;;;5090232;28;20060;-70
2023/09/06 09:50:25;;;;;;;12.95;6.80;;;23.30;99.90;;;;;;5091410;28;20148;-72
2023/09/06 09:52:52;;;;;;;14.63;6.65;;;23.40;99.90;;;;;;5090592;28;20039;-72
2023/09/06 09:55:22;;;;;;;14.05;6.68;;;23.70;99.90;;;;;;5090275;28;20545;-72
2023/09/06 09:57:48;;;;;;;12.35;6.32;;;23.70;99.90;;;;;;5089481;28;20032;-72
2023/09/06 10:00:15;;;;;;;11.50;6.30;;;23.70;99.90;;;;;;5091437;28;20074;-70
2023/09/06 10:02:46;;;;;;;11.98;6.30;;;23.90;99.90;;;;;;5090323;28;20041;-70
2023/09/06 10:05:19;;;;;;;10.25;6.40;;;24.00;99.90;;;;;;5091097;28;20107;-71
2023/09/06 10:07:47;;;;;;;13.95;6.90;;;24.10;99.90;;;;;;5090324;28;20043;-71
2023/09/06 10:10:12;;;;;;;11.00;6.78;;;24.10;99.90;;;;;;5090356;28;20033;-71
2023/09/06 10:12:44;;;;;;;15.40;6.45;;;24.10;99.90;;;;;;5088462;28;20358;-71
2023/09/06 10:15:15;;;;;;;14.85;6.13;;;24.30;99.90;;;;;;5089354;28;20032;-71
2023/09/06 10:17:41;;;;;;;11.40;6.15;;;24.60;99.90;;;;;;5089801;28;20127;-71
2023/09/06 10:20:22;;;;;;;13.27;6.75;;;24.60;99.90;;;;;;5090863;28;20040;-71
2023/09/06 10:22:49;;;;;;;14.50;6.50;;;24.50;99.90;;;;;;5089193;28;20534;-70
2023/09/06 10:25:16;;;;;;;10.20;6.22;;;24.40;99.90;;;;;;5089153;28;20495;-71
2023/09/06 10:27:49;;;;;;;14.95;7.00;;;24.50;99.90;;;;;;5089321;28;20078;-71
2023/09/06 10:30:17;;;;;;;10.18;6.15;;;24.60;99.90;;;;;;5090566;28;20557;-71
2023/09/06 10:32:45;;;;;;;9.10;6.28;;;24.60;99.90;;;;;;5087252;28;20032;-70
2023/09/06 10:35:25;;;;;;;17.23;6.70;;;24.40;99.90;;;;;;5090433;28;20035;-70
2023/09/06 10:38:07;;;;;;;10.02;6.47;;;24.50;99.90;;;;;;5089572;28;20028;-73
2023/09/06 10:40:53;;;;;;;11.30;5.70;;;24.60;99.90;;;;;;5090448;28;20125;-72
2023/09/06 10:43:28;;;;;;;9.82;6.25;;;25.00;99.90;;;;;;5072158;28;20522;-71
2023/09/06 10:45:58;;;;;;;11.27;5.78;;;25.20;99.90;;;;;;5087864;28;20840;-71
2023/09/06 10:48:25;;;;;;;12.05;5.60;;;25.40;99.90;;;;;;5089670;28;20056;-71
2023/09/06 10:51:04;;;;;;;10.27;6.40;;;25.30;99.90;;;;;;5089220;28;20051;-72
2023/09/06 10:53:30;;;;;;;9.88;6.15;;;25.20;99.90;;;;;;5090185;28;20032;-71
2023/09/06 10:55:58;;;;;;;12.40;6.35;;;25.10;99.90;;;;;;5071126;28;20127;-71
2023/09/06 10:58:24;;;;;;;12.75;6.70;;;25.10;99.90;;;;;;5087943;28;20036;-71
2023/09/06 11:01:12;;;;;;;12.30;6.25;;;25.30;99.90;;;;;;5087618;28;20109;-71
2023/09/06 11:03:38;;;;;;;8.07;5.68;;;25.30;99.90;;;;;;5089197;28;20029;-72
2023/09/06 11:06:06;;;;;;;8.30;5.65;;;25.40;99.90;;;;;;5089013;28;20042;-73
2023/09/06 11:08:33;;;;;;;8.65;5.63;;;25.60;99.90;;;;;;5088787;28;20554;-72
2023/09/06 11:11:08;;;;;;;8.95;5.30;;;25.60;99.90;;;;;;5086557;28;20025;-72
2023/09/06 11:13:38;;;;;;;11.80;5.80;;;25.80;99.90;;;;;;5089235;28;20482;-71
2023/09/06 11:16:05;;;;;;;8.27;5.27;;;25.60;99.90;;;;;;5088278;28;20237;-71
2023/09/06 11:18:41;;;;;;;6.65;4.80;;;25.60;99.90;;;;;;5089506;28;20040;-71
2023/09/06 11:21:06;;;;;;;9.38;4.85;;;26.00;99.90;;;;;;5089890;28;20158;-70
2023/09/06 11:23:49;;;;;;;9.60;5.15;;;26.20;99.90;;;;;;5085602;28;20802;-71
2023/09/06 11:26:15;;;;;;;6.43;4.40;;;26.60;99.90;;;;;;5084419;28;20032;-71
2023/09/06 11:28:44;;;;;;;8.85;4.90;;;26.60;99.20;;;;;;5088717;28;20030;-71
2023/09/06 11:31:25;;;;;;;9.77;5.35;;;26.70;99.90;;;;;;5089400;28;20090;-71
2023/09/06 11:33:55;;;;;;;8.20;5.28;;;26.90;98.30;;;;;;5087242;28;20028;-70
2023/09/06 11:36:21;;;;;;;;;;;26.60;97.10;;;;;;5089902;28;20055;-71
2023/09/06 11:38:47;;;;;;;8.85;4.75;;;26.50;97.40;;;;;;5069203;28;19957;-70
2023/09/06 11:41:13;;;;;;;8.40;4.88;;;26.40;97.60;;;;;;5088971;28;20039;-71
2023/09/06 11:43:43;;;;;;;6.32;4.60;;;26.40;98.00;;;;;;5088695;28;20428;-71
2023/09/06 11:46:11;;;;;;;6.57;4.57;;;26.80;98.40;;;;;;5088215;28;20482;-71
2023/09/06 11:48:39;;;;;;;6.05;4.60;;;27.10;97.00;;;;;;5087612;28;20080;-71
2023/09/06 11:51:13;;;;;;;7.85;4.57;;;27.20;97.70;;;;;;5070609;28;20388;-71
2023/09/06 11:53:41;;;;;;;8.60;4.10;;;27.60;98.70;;;;;;5089114;28;20115;-72
2023/09/06 11:56:08;;;;;;;6.38;4.65;;;27.90;96.70;;;;;;5088644;28;20030;-72
2023/09/06 11:58:42;;;;;;;7.70;4.25;;;27.80;95.70;;;;;;5087780;28;20423;-71
2023/09/06 12:01:10;;;;;;;7.10;4.38;;;27.90;96.10;;;;;;5088107;28;20066;-70
2023/09/06 12:03:44;;;;;;;6.00;4.38;;;27.50;94.00;;;;;;5087967;28;20427;-71
2023/09/06 12:06:10;;;;;;;8.32;4.28;;;27.20;94.90;;;;;;5087196;28;20106;-72
2023/09/06 12:08:38;;;;;;;6.65;4.53;;;27.00;95.50;;;;;;5088663;28;20119;-72
2023/09/06 12:11:10;;;;;;;8.65;3.83;;;27.00;95.70;;;;;;5085522;28;20102;-72
2023/09/06 12:13:38;;;;;;;8.60;4.38;;;26.90;95.60;;;;;;5088218;28;20082;-72
2023/09/06 12:16:06;;;;;;;6.88;4.15;;;27.30;96.00;;;;;;5085986;28;20028;-71
2023/09/06 12:18:33;;;;;;;6.07;4.28;;;27.60;96.10;;;;;;5086540;28;20111;-70
2023/09/06 12:20:59;;;;;;;5.13;3.85;;;27.70;95.10;;;;;;5087767;28;20979;-71
2023/09/06 12:23:28;;;;;;;7.18;4.47;;;27.60;94.60;;;;;;5087626;28;20032;-71
2023/09/06 12:25:55;;;;;;;7.57;4.00;;;27.50;94.70;;;;;;5087562;28;20388;-71
2023/09/06 12:28:20;;;;;;;10.82;4.18;;;27.40;94.10;;;;;;5087416;28;20422;-70
2023/09/06 12:30:46;;;;;;;6.95;4.28;;;27.60;94.10;;;;;;5086603;28;20032;-71
2023/09/06 12:33:14;;;;;;;7.25;3.90;;;27.50;93.70;;;;;;5088509;28;20036;-71
2023/09/06 12:35:40;;;;;;;6.63;4.32;;;27.40;93.00;;;;;;5088397;28;20028;-71
2023/09/06 12:38:06;;;;;;;5.90;3.70;;;27.30;94.30;;;;;;5087855;28;20039;-70
2023/09/06 12:40:33;;;;;;;6.40;3.67;;;27.60;93.10;;;;;;5088541;28;20024;-70
2023/09/06 12:42:59;;;;;;;5.60;3.35;;;27.80;94.00;;;;;;5086089;28;20059;-72